Time;durP1;ratioP1;P1;durP2;ratioP2;P2;SDS_P1;SDS_P2;PMS_P1;PMS_P2;Temp;Humidity;BMP_temperature;BMP_pressure;BME280_temperature;BME280_humidity;BME280_pressure;Samples;Min_cycle;Max_cycle;Signal;HPM_P1;HPM_P2
2023/03/21 00:00:15;;;;;;;22.58;12.98;;;;;;;-146.27;100.00;48347.81;5093487;28;20069;-71
2023/03/21 00:02:40;;;;;;;23.42;13.43;;;;;;;-146.27;100.00;48359.75;5086766;28;20020;-71
2023/03/21 00:05:06;;;;;;;30.92;14.40;;;;;;;-146.27;100.00;48335.84;5089864;28;20582;-71
2023/03/21 00:07:31;;;;;;;27.95;13.35;;;;;;;-146.27;100.00;48355.78;5088020;28;20063;-70
2023/03/21 00:09:56;;;;;;;23.08;12.55;;;;;;;-146.27;100.00;48357.75;5083741;28;20113;-69
2023/03/21 00:12:22;;;;;;;28.02;13.50;;;;;;;-146.27;100.00;48381.66;5088996;28;20020;-70
2023/03/21 00:14:47;;;;;;;39.25;15.68;;;;;;;-146.27;100.00;48357.75;5093247;28;20392;-71
2023/03/21 00:17:14;;;;;;;28.52;15.10;;;;;;;-146.27;100.00;48385.66;5086786;28;20035;-71
2023/03/21 00:19:40;;;;;;;30.67;16.40;;;;;;;-146.27;100.00;48373.69;5092382;28;20019;-70
2023/03/21 00:22:06;;;;;;;33.72;16.40;;;;;;;-146.27;100.00;48361.75;5087988;28;20038;-71
2023/03/21 00:24:32;;;;;;;30.42;15.50;;;;;;;-146.27;100.00;48365.72;5091985;28;20024;-71
2023/03/21 00:26:58;;;;;;;34.08;17.27;;;;;;;-146.27;100.00;48343.81;5091841;28;20033;-71
2023/03/21 00:29:23;;;;;;;29.42;15.63;;;;;;;-146.27;100.00;48399.59;5091241;28;20051;-70
2023/03/21 00:31:49;;;;;;;32.60;16.50;;;;;;;-146.27;100.00;48373.69;5087043;28;20119;-71
2023/03/21 00:34:14;;;;;;;35.10;16.55;;;;;;;-146.27;100.00;48387.63;5085059;28;20032;-70
2023/03/21 00:36:40;;;;;;;36.60;17.67;;;;;;;-146.27;100.00;48343.81;5091802;28;20035;-72
2023/03/21 00:39:06;;;;;;;40.97;18.80;;;;;;;-146.27;100.00;48347.81;5091334;28;20039;-70
2023/03/21 00:41:31;;;;;;;37.53;17.75;;;;;;;-146.27;100.00;48343.81;5086999;28;20476;-70
2023/03/21 00:43:56;;;;;;;42.80;19.60;;;;;;;-146.27;100.00;48367.72;5093424;28;20110;-71
2023/03/21 00:46:22;;;;;;;38.42;19.30;;;;;;;-146.27;100.00;48371.69;5094264;28;20016;-71
2023/03/21 00:48:47;;;;;;;38.28;19.13;;;;;;;-146.27;100.00;48315.94;5092486;28;20480;-70
2023/03/21 00:51:20;;;;;;;41.25;21.58;;;;;;;-146.27;100.00;48377.69;5089117;28;20035;-70
2023/03/21 00:53:45;;;;;;;36.70;20.95;;;;;;;-146.27;100.00;48355.78;5093279;28;20023;-70
2023/03/21 00:56:11;;;;;;;47.55;21.77;;;;;;;-146.27;100.00;48363.75;5092133;28;20471;-71
2023/03/21 00:58:36;;;;;;;41.00;21.35;;;;;;;-146.27;100.00;48363.75;5089258;28;20107;-71
2023/03/21 01:01:03;;;;;;;32.95;19.63;;;;;;;-146.27;100.00;48363.75;5081760;28;20122;-72
2023/03/21 01:03:28;;;;;;;35.90;19.23;;;;;;;-146.27;100.00;48353.78;5092526;28;20051;-71
2023/03/21 01:06:03;;;;;;;35.58;20.27;;;;;;;-146.27;100.00;48387.63;5091345;28;20405;-71
2023/03/21 01:08:31;;;;;;;39.60;20.52;;;;;;;-146.27;100.00;48353.78;5080934;28;20043;-71
2023/03/21 01:11:02;;;;;;;43.85;20.30;;;;;;;-146.27;100.00;48351.78;5080348;28;20024;-71
2023/03/21 01:13:27;;;;;;;39.75;20.35;;;;;;;-146.27;100.00;48373.69;5085835;28;20106;-71
2023/03/21 01:15:54;;;;;;;33.78;19.63;;;;;;;-146.27;100.00;48395.59;5087943;28;20103;-70
2023/03/21 01:18:25;;;;;;;39.97;20.10;;;;;;;-146.27;100.00;48367.72;5084719;28;20023;-71
2023/03/21 01:20:51;;;;;;;37.40;19.13;;;;;;;-146.27;100.00;48361.75;5090445;28;20077;-70
2023/03/21 01:23:16;;;;;;;41.00;18.92;;;;;;;-146.27;100.00;48333.88;5076406;28;20032;-71
2023/03/21 01:25:42;;;;;;;45.30;19.58;;;;;;;-146.27;100.00;48377.69;5073067;28;20107;-71
2023/03/21 01:28:09;;;;;;;38.35;20.15;;;;;;;-146.27;100.00;48375.69;5079465;28;20490;-71
2023/03/21 01:30:35;;;;;;;36.70;18.73;;;;;;;-146.27;100.00;48347.81;5091122;28;20020;-70
2023/03/21 01:33:00;;;;;;;42.42;18.20;;;;;;;-146.27;100.00;48381.66;5090288;28;20368;-69
2023/03/21 01:35:26;;;;;;;38.58;19.55;;;;;;;-146.27;100.00;48355.78;5086293;28;20025;-70
2023/03/21 01:37:51;;;;;;;33.78;19.10;;;;;;;-146.27;100.00;48383.66;5073948;28;20032;-71
2023/03/21 01:40:22;;;;;;;45.88;19.90;;;;;;;-146.27;100.00;48363.75;5079268;28;20054;-70
2023/03/21 01:42:48;;;;;;;39.00;19.25;;;;;;;-146.27;100.00;48391.63;5089253;28;20088;-70
2023/03/21 01:45:51;;;;;;;45.33;20.85;;;;;;;-146.27;100.00;48379.66;5084643;28;20024;-71
2023/03/21 01:48:18;;;;;;;49.45;21.27;;;;;;;-146.27;100.00;48361.75;5074088;28;20111;-71
2023/03/21 01:50:45;;;;;;;42.50;20.33;;;;;;;-146.27;100.00;48375.69;5075480;28;20017;-70
2023/03/21 01:53:10;;;;;;;40.05;21.25;;;;;;;-146.27;100.00;48391.63;5072995;28;20600;-71
2023/03/21 01:55:36;;;;;;;43.20;21.33;;;;;;;-146.27;100.00;48365.72;5072296;28;20129;-70
2023/03/21 01:58:04;;;;;;;45.67;22.40;;;;;;;-146.27;100.00;48373.69;5092855;28;20031;-71
2023/03/21 02:00:31;;;;;;;42.88;21.75;;;;;;;-146.27;100.00;48379.66;5088852;28;20027;-71
2023/03/21 02:03:00;;;;;;;43.83;19.92;;;;;;;-146.27;100.00;48343.81;5079424;28;20027;-70
2023/03/21 02:05:37;;;;;;;39.17;19.52;;;;;;;-146.27;100.00;48331.88;5085951;28;20033;-69
2023/03/21 02:08:03;;;;;;;36.25;19.02;;;;;;;-146.27;100.00;48363.75;5072311;28;20113;-71
2023/03/21 02:10:31;;;;;;;43.28;19.38;;;;;;;-146.27;100.00;48323.91;5086893;28;20523;-71
2023/03/21 02:13:08;;;;;;;49.58;19.70;;;;;;;-146.27;100.00;48399.59;5086356;28;20028;-71
2023/03/21 02:15:36;;;;;;;35.22;17.92;;;;;;;-146.27;100.00;48347.81;5091158;28;20028;-71
2023/03/21 02:18:12;;;;;;;40.13;18.77;;;;;;;-146.27;100.00;48363.75;5089779;28;20024;-71
2023/03/21 02:20:57;;;;;;;38.53;17.95;;;;;;;-146.27;100.00;48361.75;5086592;28;20114;-71
2023/03/21 02:23:47;;;;;;;36.85;17.88;;;;;;;-146.27;100.00;48397.59;5086963;28;20040;-71
2023/03/21 02:26:19;;;;;;;35.65;19.38;;;;;;;-146.27;100.00;48331.88;5089352;28;20092;-71
2023/03/21 02:28:59;;;;;;;34.35;18.08;;;;;;;-146.27;100.00;48373.69;5084975;28;20040;-71
2023/03/21 02:31:27;;;;;;;31.45;17.05;;;;;;;-146.27;100.00;48327.88;5072057;28;20028;-71
2023/03/21 02:34:28;;;;;;;29.38;16.38;;;;;;;-146.27;100.00;48347.81;5075891;28;20040;-71
2023/03/21 02:37:05;;;;;;;33.03;16.75;;;;;;;-146.27;100.00;48341.81;5050359;28;20515;-72
2023/03/21 02:39:51;;;;;;;33.33;17.02;;;;;;;-146.27;100.00;48369.72;5086298;28;20444;-71
2023/03/21 02:42:27;;;;;;;26.67;15.85;;;;;;;-146.27;100.00;48355.78;5091900;28;20544;-72
2023/03/21 02:45:10;;;;;;;28.48;16.83;;;;;;;-146.27;100.00;48383.66;5091107;28;20035;-70
2023/03/21 02:47:48;;;;;;;34.88;16.70;;;;;;;-146.27;100.00;48357.75;5072863;28;20020;-71
2023/03/21 02:50:23;;;;;;;24.88;16.02;;;;;;;-146.27;100.00;48323.91;5084940;28;20027;-71
2023/03/21 02:52:51;;;;;;;29.27;15.30;;;;;;;-146.27;100.00;48355.78;5083717;28;20028;-71
2023/03/21 02:55:24;;;;;;;33.38;16.40;;;;;;;-146.27;100.00;48379.66;5079876;28;20024;-71
2023/03/21 02:57:52;;;;;;;26.90;13.48;;;;;;;-146.27;100.00;48331.88;5076742;28;20024;-71
2023/03/21 03:00:22;;;;;;;38.38;14.40;;;;;;;-146.27;100.00;48343.81;5076021;28;20024;-71
2023/03/21 03:02:51;;;;;;;26.13;13.15;;;;;;;-146.27;100.00;48351.78;5087899;28;20383;-71
2023/03/21 03:05:29;;;;;;;27.02;12.85;;;;;;;-146.27;100.00;84059.88;5092176;28;20024;-70
2023/03/21 03:08:27;;;;;;;23.45;13.10;;;;;;;-146.27;100.00;84017.69;5084364;28;20379;-69
2023/03/21 03:10:58;;;;;;;26.70;12.68;;;;;;;-146.27;100.00;84035.75;5090814;28;20034;-70
2023/03/21 03:13:40;;;;;;;28.70;12.95;;;;;;;-146.27;100.00;84061.88;5095088;28;20023;-71
2023/03/21 03:16:15;;;;;;;24.77;13.50;;;;;;;-146.27;100.00;84019.69;5093590;28;20042;-70
2023/03/21 03:18:52;;;;;;;26.35;12.98;;;;;;;-146.27;100.00;84007.63;5086208;28;20059;-71
2023/03/21 03:21:28;;;;;;;22.90;12.48;;;;;;;-146.27;100.00;84055.84;5075641;28;20052;-71
2023/03/21 03:23:56;;;;;;;32.65;13.32;;;;;;;-146.27;100.00;84003.59;5090195;28;20023;-71
2023/03/21 03:26:29;;;;;;;28.25;13.85;;;;;;;-146.27;100.00;84043.81;5091377;28;20422;-72
2023/03/21 03:29:00;;;;;;;32.97;13.03;;;;;;;-146.27;100.00;84057.88;5087664;28;20089;-71
2023/03/21 03:31:32;;;;;;;33.10;13.13;;;;;;;-146.27;100.00;83991.56;5083340;28;20025;-70
2023/03/21 03:34:05;;;;;;;28.05;11.45;;;;;;;-146.27;100.00;84017.69;5084681;28;20062;-70
2023/03/21 03:36:38;;;;;;;27.02;11.68;;;;;;;-146.27;100.00;84029.72;5082270;28;20044;-70
2023/03/21 03:39:07;;;;;;;25.30;12.20;;;;;;;-146.27;100.00;84003.59;5090050;28;20117;-71
2023/03/21 03:41:41;;;;;;;23.30;11.57;;;;;;;-146.27;100.00;84015.66;5089153;28;20144;-70
2023/03/21 03:44:07;;;;;;;28.90;11.68;;;;;;;-146.27;100.00;83991.56;5094164;28;20035;-72
2023/03/21 03:46:43;;;;;;;30.90;13.60;;;;;;;-146.27;100.00;83999.59;5094171;28;20020;-71
2023/03/21 03:49:21;;;;;;;27.60;13.43;;;;;;;-146.27;100.00;83983.50;5076578;28;20024;-71
2023/03/21 03:51:54;;;;;;;32.10;15.80;;;;;;;-146.27;100.00;84011.66;5087442;28;20476;-70
2023/03/21 03:54:26;;;;;;;32.20;15.93;;;;;;;-146.27;100.00;84023.69;5094998;28;20036;-70
2023/03/21 03:56:51;;;;;;;35.90;16.13;;;;;;;-146.27;100.00;84015.66;5095319;28;20270;-70
2023/03/21 03:59:18;;;;;;;30.50;15.45;;;;;;;-146.27;100.00;84011.66;5083023;28;20032;-70
2023/03/21 04:01:44;;;;;;;36.13;15.43;;;;;;;-146.27;100.00;84041.78;5074611;28;20028;-70
2023/03/21 04:04:10;;;;;;;31.67;15.88;;;;;;;-146.27;100.00;84007.63;5074793;28;20025;-71
2023/03/21 04:06:37;;;;;;;35.67;16.40;;;;;;;-146.27;100.00;84011.66;5074852;28;20384;-71
2023/03/21 04:09:04;;;;;;;41.25;17.00;;;;;;;-146.27;100.00;84013.66;5074388;28;20049;-71
2023/03/21 04:11:30;;;;;;;31.90;14.68;;;;;;;-146.27;100.00;84043.81;5087300;28;20028;-71
2023/03/21 04:13:55;;;;;;;33.85;15.32;;;;;;;-146.27;100.00;84029.72;5087501;28;20388;-70
2023/03/21 04:16:22;;;;;;;33.65;14.55;;;;;;;-146.27;100.00;84047.81;5077346;28;20461;-70
2023/03/21 04:18:47;;;;;;;33.03;14.98;;;;;;;-146.27;100.00;84067.91;5091932;28;20449;-70
2023/03/21 04:21:13;;;;;;;25.25;13.98;;;;;;;-146.27;100.00;84031.75;5083586;28;20024;-70
2023/03/21 04:23:39;;;;;;;34.30;15.38;;;;;;;-146.27;100.00;84037.78;5074409;28;20388;-70
2023/03/21 04:26:06;;;;;;;37.53;14.40;;;;;;;-146.27;100.00;84067.91;5074565;28;20028;-71
2023/03/21 04:28:32;;;;;;;36.40;14.20;;;;;;;-146.27;100.00;84043.81;5089611;28;20056;-69
2023/03/21 04:30:58;;;;;;;35.13;16.05;;;;;;;-146.27;100.00;84067.91;5090745;28;20032;-70
2023/03/21 04:33:31;;;;;;;31.08;13.35;;;;;;;-146.27;100.00;84079.97;5093873;28;20434;-70
2023/03/21 04:35:57;;;;;;;32.53;14.57;;;;;;;-146.27;100.00;84059.88;5094612;28;20020;-71
2023/03/21 04:38:25;;;;;;;29.73;14.57;;;;;;;-146.27;100.00;84055.84;5080149;28;20434;-70
2023/03/21 04:40:51;;;;;;;32.38;15.57;;;;;;;-146.27;100.00;84059.88;5092254;28;20020;-71
2023/03/21 04:43:16;;;;;;;24.65;14.75;;;;;;;-146.27;100.00;84039.78;5086097;28;20044;-71
2023/03/21 04:45:43;;;;;;;31.27;14.75;;;;;;;-146.27;100.00;84029.72;5078767;28;20024;-70
2023/03/21 04:48:08;;;;;;;32.55;14.45;;;;;;;-146.27;100.00;84061.88;5106397;28;20385;-70
2023/03/21 04:50:34;;;;;;;33.92;15.75;;;;;;;-146.27;100.00;84049.84;5088001;28;20039;-69
2023/03/21 04:52:59;;;;;;;33.63;15.60;;;;;;;-146.27;100.00;84059.88;5092569;28;20024;-69
2023/03/21 04:55:26;;;;;;;31.92;15.18;;;;;;;-146.27;100.00;84065.91;5093136;28;20035;-69
2023/03/21 04:57:52;;;;;;;29.67;13.85;;;;;;;-146.27;100.00;84025.72;5088225;28;20110;-70
2023/03/21 05:00:18;;;;;;;42.83;15.57;;;;;;;-146.27;100.00;84041.78;5088914;28;20108;-70
2023/03/21 05:02:43;;;;;;;28.77;14.65;;;;;;;-146.27;100.00;84027.72;5086984;28;20028;-70
2023/03/21 05:05:10;;;;;;;38.70;16.10;;;;;;;-146.27;100.00;84027.72;5091840;28;20070;-72
2023/03/21 05:07:36;;;;;;;28.02;14.35;;;;;;;-146.27;100.00;84051.84;5093322;28;20127;-71
2023/03/21 05:10:02;;;;;;;32.90;15.27;;;;;;;-146.27;100.00;84029.72;5089611;28;20031;-71
2023/03/21 05:12:27;;;;;;;34.03;15.70;;;;;;;-146.27;100.00;84019.69;5079580;28;20036;-70
2023/03/21 05:14:52;;;;;;;28.52;14.13;;;;;;;-146.27;100.00;84011.66;5079927;28;20372;-71
2023/03/21 05:17:22;;;;;;;38.67;15.95;;;;;;;-146.27;100.00;84011.66;5084803;28;20089;-71
2023/03/21 05:19:49;;;;;;;35.75;15.95;;;;;;;-146.27;100.00;84043.81;5089655;28;20035;-70
2023/03/21 05:22:18;;;;;;;32.28;15.93;;;;;;;-146.27;100.00;84019.69;5092642;28;20032;-71
2023/03/21 05:24:48;;;;;;;37.03;16.02;;;;;;;-146.27;100.00;84025.72;5078715;28;20024;-69
2023/03/21 05:27:33;;;;;;;30.33;15.77;;;;;;;-146.27;100.00;84019.69;5073026;28;20097;-70
2023/03/21 05:30:14;;;;;;;38.22;15.77;;;;;;;-146.27;100.00;84041.78;5073018;28;20334;-70
2023/03/21 05:32:39;;;;;;;41.47;15.05;;;;;;;-146.27;100.00;84017.69;5073811;28;20369;-70
2023/03/21 05:35:05;;;;;;;39.00;16.25;;;;;;;-146.27;100.00;84003.59;5084807;28;20035;-71
2023/03/21 05:37:30;;;;;;;33.38;15.75;;;;;;;-146.27;100.00;83989.53;5091187;28;20107;-71
2023/03/21 05:39:56;;;;;;;35.38;16.90;;;;;;;-146.27;100.00;84007.63;5083789;28;20021;-71
2023/03/21 05:42:22;;;;;;;39.55;16.75;;;;;;;-146.27;100.00;84051.84;5083801;28;20518;-70
2023/03/21 05:44:47;;;;;;;37.58;17.33;;;;;;;-146.27;100.00;84015.66;5092642;28;20032;-71
2023/03/21 05:47:14;;;;;;;42.00;15.68;;;;;;;-146.27;100.00;84015.66;5092547;28;20103;-71
2023/03/21 05:49:40;;;;;;;36.45;15.20;;;;;;;-146.27;100.00;84037.78;5078908;28;20032;-71
2023/03/21 05:52:06;;;;;;;37.33;16.67;;;;;;;-146.27;100.00;84027.72;5083509;28;20479;-71
2023/03/21 05:54:31;;;;;;;30.42;16.17;;;;;;;-146.27;100.00;84023.69;5091686;28;20020;-71
2023/03/21 05:56:57;;;;;;;32.28;16.45;;;;;;;-146.27;100.00;84025.72;5087352;28;20108;-71
2023/03/21 05:59:22;;;;;;;33.75;16.38;;;;;;;-146.27;100.00;84005.63;5076621;28;20403;-71
2023/03/21 06:01:47;;;;;;;32.83;15.98;;;;;;;-146.27;100.00;84023.69;5089217;28;20024;-71
2023/03/21 06:04:13;;;;;;;32.58;17.15;;;;;;;-146.27;100.00;84011.66;5078216;28;20032;-71
2023/03/21 06:06:39;;;;;;;29.20;14.70;;;;;;;-146.27;100.00;84011.66;5072677;28;20091;-71
2023/03/21 06:09:05;;;;;;;32.63;15.85;;;;;;;-146.27;100.00;84023.69;5085907;28;20069;-70
2023/03/21 06:11:34;;;;;;;31.75;15.18;;;;;;;-146.27;100.00;84019.69;5084183;28;20080;-70
2023/03/21 06:14:00;;;;;;;34.47;14.73;;;;;;;-146.27;100.00;84057.88;5089265;28;20019;-71
2023/03/21 06:16:27;;;;;;;30.75;13.10;;;;;;;-146.27;100.00;83987.53;5089563;28;20051;-69
2023/03/21 06:18:52;;;;;;;28.10;13.38;;;;;;;-146.27;100.00;84029.72;5089889;28;20035;-70
2023/03/21 06:21:18;;;;;;;28.92;13.98;;;;;;;-146.27;100.00;83995.56;5084289;28;20036;-71
2023/03/21 06:23:43;;;;;;;29.27;13.68;;;;;;;-146.27;100.00;84005.63;5080551;28;20951;-70
2023/03/21 06:26:09;;;;;;;29.77;13.13;;;;;;;-146.27;100.00;83979.50;5092152;28;20032;-71
2023/03/21 06:28:35;;;;;;;28.08;12.70;;;;;;;-146.27;100.00;84075.94;5086297;28;20499;-69
2023/03/21 06:31:00;;;;;;;25.38;13.30;;;;;;;-146.27;100.00;84009.63;5079079;28;20028;-69
2023/03/21 06:33:26;;;;;;;25.75;12.38;;;;;;;-146.27;100.00;84011.66;5085742;28;20476;-71
2023/03/21 06:35:56;;;;;;;28.80;12.75;;;;;;;-146.27;100.00;84043.81;5082895;28;20024;-70
2023/03/21 06:38:22;;;;;;;29.05;14.25;;;;;;;-146.27;100.00;84021.69;5074009;28;20384;-70
2023/03/21 06:40:49;;;;;;;29.63;12.48;;;;;;;-146.27;100.00;83981.50;5077400;28;20036;-70
2023/03/21 06:43:17;;;;;;;26.52;12.98;;;;;;;-146.27;100.00;84003.59;5086555;28;20024;-69
2023/03/21 06:45:43;;;;;;;28.15;12.88;;;;;;;-146.27;100.00;84027.72;5086767;28;20031;-70
2023/03/21 06:48:09;;;;;;;27.85;13.38;;;;;;;-146.27;100.00;84009.63;5083272;28;21591;-70
2023/03/21 06:50:34;;;;;;;28.73;13.35;;;;;;;-146.27;100.00;84043.81;5080944;28;20028;-70
2023/03/21 06:53:00;;;;;;;27.05;12.23;;;;;;;-146.27;100.00;84011.66;5070325;28;20494;-70
2023/03/21 06:55:27;;;;;;;35.10;15.40;;;;;;;-146.27;100.00;84039.78;5079987;28;20021;-70
2023/03/21 06:57:54;;;;;;;26.33;12.80;;;;;;;-146.27;100.00;84025.72;5076897;28;20046;-70
2023/03/21 07:00:20;;;;;;;28.02;12.82;;;;;;;-146.27;100.00;84071.94;5081472;28;20024;-71
2023/03/21 07:02:46;;;;;;;37.25;14.32;;;;;;;-146.27;100.00;84096.06;5080268;28;20162;-70
2023/03/21 07:05:12;;;;;;;29.13;12.45;;;;;;;-146.27;100.00;84055.84;5082195;28;20021;-69
2023/03/21 07:07:38;;;;;;;33.00;13.68;;;;;;;-146.27;100.00;84053.84;5084515;28;20056;-70
2023/03/21 07:10:03;;;;;;;34.60;14.43;;;;;;;-146.27;100.00;84017.69;5078401;28;20020;-70
2023/03/21 07:12:32;;;;;;;32.80;15.35;;;;;;;-146.27;100.00;84035.75;5082080;28;20042;-69
2023/03/21 07:14:58;;;;;;;30.85;13.82;;;;;;;-146.27;100.00;84081.97;5078333;28;20029;-69
2023/03/21 07:17:24;;;;;;;31.70;13.73;;;;;;;-146.27;100.00;84081.97;5078424;28;20460;-70
2023/03/21 07:19:49;;;;;;;34.03;13.60;;;;;;;-146.27;100.00;84027.72;5085853;28;20391;-69
2023/03/21 07:22:15;;;;;;;30.58;14.77;;;;;;;-146.27;100.00;84041.78;5087109;28;20039;-70
2023/03/21 07:24:40;;;;;;;34.47;15.98;;;;;;;-146.27;100.00;84081.97;5089125;28;20425;-70
2023/03/21 07:27:06;;;;;;;30.38;14.32;;;;;;;-146.27;100.00;84055.84;5082687;28;20115;-70
2023/03/21 07:29:31;;;;;;;33.38;15.05;;;;;;;-146.27;100.00;84043.81;5080598;28;20032;-69
2023/03/21 07:31:57;;;;;;;34.65;15.13;;;;;;;-146.27;100.00;84071.94;5083657;28;20075;-69
2023/03/21 07:34:22;;;;;;;40.05;14.00;;;;;;;-146.27;100.00;84061.88;5080934;28;20025;-70
2023/03/21 07:36:48;;;;;;;45.30;15.65;;;;;;;-146.27;100.00;84035.75;5085195;28;20031;-70
2023/03/21 07:39:13;;;;;;;36.00;15.32;;;;;;;-146.27;100.00;84031.75;5089754;28;20036;-69
2023/03/21 07:41:39;;;;;;;30.90;12.90;;;;;;;-146.27;100.00;84047.81;5075157;28;20435;-69
2023/03/21 07:44:04;;;;;;;29.77;15.43;;;;;;;-146.27;100.00;84051.84;5079660;28;20020;-68
2023/03/21 07:46:29;;;;;;;41.53;14.32;;;;;;;-146.27;100.00;83941.31;5092421;28;20020;-69
2023/03/21 07:48:55;;;;;;;36.30;14.90;;;;;;;-146.27;100.00;84007.63;5089580;28;20016;-70
2023/03/21 07:51:20;;;;;;;35.05;14.60;;;;;;;-146.27;100.00;84019.69;5094359;28;20494;-69
2023/03/21 07:53:47;;;;;;;35.10;13.68;;;;;;;-146.27;100.00;84015.66;5089330;28;20468;-70
2023/03/21 07:56:12;;;;;;;29.67;14.98;;;;;;;-146.27;100.00;84027.72;5091575;28;20020;-70
2023/03/21 07:58:38;;;;;;;26.88;13.07;;;;;;;-146.27;100.00;84031.75;5076186;28;20028;-69
2023/03/21 08:01:03;;;;;;;32.75;12.68;;;;;;;-146.27;100.00;84007.63;5080370;28;20030;-68
2023/03/21 08:03:31;;;;;;;26.05;12.52;;;;;;;-146.27;100.00;83985.53;5094954;28;20035;-70
2023/03/21 08:05:58;;;;;;;25.05;12.98;;;;;;;-146.27;100.00;84003.59;5095018;28;20077;-69
2023/03/21 08:08:24;;;;;;;31.55;12.52;;;;;;;-146.27;100.00;84005.63;5088752;28;20047;-70
2023/03/21 08:10:49;;;;;;;36.28;13.48;;;;;;;-146.27;100.00;83963.41;5093367;28;20028;-69
2023/03/21 08:13:15;;;;;;;38.20;13.65;;;;;;;-146.27;100.00;83979.50;5074795;28;20488;-70
2023/03/21 08:15:41;;;;;;;26.15;13.30;;;;;;;-146.27;100.00;83991.56;5093165;28;20092;-70
2023/03/21 08:18:07;;;;;;;34.13;13.48;;;;;;;-146.27;100.00;83955.38;5093569;28;20024;-70
2023/03/21 08:20:33;;;;;;;28.50;11.55;;;;;;;-146.27;100.00;83943.31;5092170;28;20660;-70
2023/03/21 08:22:58;;;;;;;30.30;12.07;;;;;;;-146.27;100.00;83957.38;5094590;28;20107;-70
2023/03/21 08:25:24;;;;;;;29.50;12.10;;;;;;;-146.27;100.00;83911.16;5092877;28;20077;-71
2023/03/21 08:27:50;;;;;;;31.30;12.48;;;;;;;-146.27;100.00;83945.31;5091836;28;20031;-70
2023/03/21 08:30:19;;;;;;;31.77;12.57;;;;;;;-146.27;100.00;83955.38;5077435;28;20028;-70
2023/03/21 08:32:44;;;;;;;27.70;11.05;;;;;;;-146.27;100.00;83919.19;5094048;28;20024;-69
2023/03/21 08:35:12;;;;;;;28.90;10.95;;;;;;;-146.27;100.00;83943.31;5093607;28;20409;-70
2023/03/21 08:37:39;;;;;;;16.48;8.85;;;;;;;-146.27;100.00;83879.00;5080402;28;20049;-70
2023/03/21 08:40:07;;;;;;;24.52;10.18;;;;;;;-146.27;100.00;83883.03;5082122;28;20029;-71
2023/03/21 08:42:33;;;;;;;23.30;9.65;;;;;;;-146.27;100.00;83872.97;5093038;28;20558;-71
2023/03/21 08:44:59;;;;;;;23.98;8.70;;;;;;;-146.27;100.00;83883.03;5093877;28;20056;-70
2023/03/21 08:47:24;;;;;;;22.60;8.73;;;;;;;-146.27;100.00;83858.91;5088970;28;20023;-70
2023/03/21 08:49:49;;;;;;;17.98;7.43;;;;;;;-146.27;100.00;83862.94;5083821;28;20021;-70
2023/03/21 08:52:15;;;;;;;14.32;7.03;;;;;;;-146.27;100.00;83832.78;5086841;28;20445;-69
2023/03/21 08:54:40;;;;;;;23.80;7.93;;;;;;;-146.27;100.00;83870.97;5092752;28;20028;-70
2023/03/21 08:57:07;;;;;;;17.58;6.93;;;;;;;-146.27;100.00;83786.56;5073736;28;20028;-71
2023/03/21 08:59:33;;;;;;;16.02;7.47;;;;;;;-146.27;100.00;83818.72;5073474;28;20056;-71
2023/03/21 09:01:58;;;;;;;15.70;6.63;;;;;;;-146.27;100.00;83818.72;5086247;28;20054;-71
2023/03/21 09:04:26;;;;;;;19.67;7.03;;;;;;;-146.27;100.00;83778.53;5083887;28;20020;-71
2023/03/21 09:06:55;;;;;;;12.93;7.22;;;;;;;-146.27;100.00;83758.44;5073336;28;20032;-69
2023/03/21 09:09:20;;;;;;;18.15;6.88;;;;;;;-146.27;100.00;83794.63;5074717;28;20059;-70
2023/03/21 09:11:46;;;;;;;11.23;5.85;;;;;;;-146.27;100.00;83768.50;5091511;28;20066;-70
2023/03/21 09:14:11;;;;;;;21.90;6.78;;;;;;;-146.27;100.00;83754.44;5073393;28;20424;-71
2023/03/21 09:16:38;;;;;;;15.15;7.97;;;;;;;-146.27;100.00;83742.38;5082119;28;20037;-70
2023/03/21 09:19:07;;;;;;;14.23;7.25;;;;;;;-146.27;100.00;83738.34;5071942;28;20074;-70
2023/03/21 09:21:33;;;;;;;16.77;6.88;;;;;;;-146.27;100.00;83706.19;5073350;28;20472;-70
2023/03/21 09:23:59;;;;;;;14.48;8.05;;;;;;;-146.27;100.00;83714.22;5089564;28;20028;-71
2023/03/21 09:26:26;;;;;;;17.48;7.50;;;;;;;-146.27;100.00;83774.53;5092295;28;20059;-69
2023/03/21 09:28:53;;;;;;;16.40;7.22;;;;;;;-146.27;100.00;83730.31;5077133;28;20040;-70
2023/03/21 09:31:22;;;;;;;15.68;7.65;;;;;;;-146.27;100.00;83738.34;5085256;28;20028;-71
2023/03/21 09:33:49;;;;;;;15.65;7.85;;;;;;;-146.27;100.00;83752.41;5090295;28;20073;-71
2023/03/21 09:36:15;;;;;;;17.70;8.07;;;;;;;-146.27;100.00;83692.13;5088428;28;20078;-71
2023/03/21 09:38:44;;;;;;;18.20;7.30;;;;;;;-146.27;100.00;83659.97;5084891;28;20062;-71
2023/03/21 09:41:34;;;;;;;21.27;8.73;;;;;;;-146.27;100.00;83682.09;5093068;28;20256;-70
2023/03/21 09:44:15;;;;;;;14.15;7.80;;;;;;;-146.27;100.00;83704.19;5091945;28;20077;-71
2023/03/21 09:46:50;;;;;;;20.65;8.68;;;;;;;-146.27;100.00;83702.19;5085202;28;20028;-70
2023/03/21 09:49:24;;;;;;;14.02;8.05;;;;;;;-146.27;100.00;83714.22;5081165;28;20374;-70
2023/03/21 09:51:51;;;;;;;24.48;9.10;;;;;;;-146.27;100.00;83629.84;5092720;28;20044;-69
2023/03/21 09:54:23;;;;;;;16.25;8.30;;;;;;;-146.27;100.00;83682.09;5081126;28;20031;-69
2023/03/21 09:56:53;;;;;;;18.88;9.43;;;;;;;-146.27;100.00;83668.00;5079043;28;20036;-70
2023/03/21 09:59:40;;;;;;;23.80;8.77;;;;;;;-146.27;100.00;83645.91;5092763;28;20468;-69
2023/03/21 10:02:18;;;;;;;20.95;9.15;;;;;;;-146.27;100.00;83619.78;5091252;28;20028;-71
2023/03/21 10:04:45;;;;;;;19.20;7.88;;;;;;;-146.27;100.00;83607.72;5083579;28;20024;-70
2023/03/21 10:07:17;;;;;;;18.48;8.55;;;;;;;-146.27;100.00;83617.78;5089533;28;20506;-69
2023/03/21 10:09:45;;;;;;;15.45;8.07;;;;;;;-146.27;100.00;83631.84;5091156;28;20043;-71
2023/03/21 10:12:21;;;;;;;18.83;8.15;;;;;;;-146.27;100.00;83585.63;5090525;28;20383;-70
2023/03/21 10:14:50;;;;;;;16.65;7.60;;;;;;;-146.27;100.00;83553.47;5084253;28;20024;-69
2023/03/21 10:17:36;;;;;;;20.08;8.15;;;;;;;-146.27;100.00;83569.56;5070991;28;20033;-69
2023/03/21 10:20:20;;;;;;;23.85;7.78;;;;;;;-146.27;100.00;83529.38;5072051;28;20067;-70
2023/03/21 10:22:47;;;;;;;16.23;8.43;;;;;;;-146.27;100.00;83539.41;5071636;28;20055;-70
2023/03/21 10:25:20;;;;;;;18.00;8.50;;;;;;;-146.27;100.00;83541.41;5076610;28;20032;-75
2023/03/21 10:27:47;;;;;;;22.98;8.75;;;;;;;-146.27;100.00;83513.28;5071793;28;20024;-75
2023/03/21 10:30:23;;;;;;;15.75;7.72;;;;;;;-146.27;100.00;83541.41;5079561;28;20051;-74
2023/03/21 10:32:49;;;;;;;12.60;7.82;;;;;;;-146.27;100.00;83535.41;5088117;28;20028;-74
2023/03/21 10:35:14;;;;;;;23.00;8.27;;;;;;;-146.27;100.00;83501.22;5086029;28;20353;-74
2023/03/21 10:37:40;;;;;;;17.17;7.32;;;;;;;-146.27;100.00;83511.28;5091374;28;20480;-75
2023/03/21 10:40:08;;;;;;;13.10;7.30;;;;;;;-146.27;100.00;83493.19;5092339;28;20031;-75
2023/03/21 10:42:35;;;;;;;21.23;7.55;;;;;;;-146.27;100.00;83477.13;5092153;28;20093;-74
2023/03/21 10:45:00;;;;;;;12.43;7.50;;;;;;;-146.27;100.00;83505.25;5086664;28;20020;-75
2023/03/21 10:47:29;;;;;;;13.35;7.00;;;;;;;-146.27;100.00;83587.63;5089265;28;20042;-74
2023/03/21 10:50:00;;;;;;;15.73;7.82;;;;;;;-146.27;100.00;83569.56;5086594;28;20384;-76
2023/03/21 10:52:29;;;;;;;16.20;7.18;;;;;;;-146.27;100.00;83575.59;5091129;28;20032;-75
2023/03/21 10:55:27;;;;;;;18.58;8.05;;;;;;;-146.27;100.00;83583.63;5084244;28;20372;-75
2023/03/21 10:57:58;;;;;;;18.90;8.90;;;;;;;-146.27;100.00;83579.59;5071775;28;20040;-75
2023/03/21 11:00:38;;;;;;;19.08;8.15;;;;;;;-146.27;100.00;83563.53;5071682;28;20031;-75